Time,TemperatureF,DewpointF,PressureIn,WindDirection,WindDirectionDegrees,WindSpeedMPH,WindSpeedGustMPH,Humidity,HourlyPrecipIn,Conditions,Clouds,dailyrainin,SoftwareType,DateUTC
2013-02-27 00:02:00,30.0,26.0,29.91,NNW,340,4.0,8.0,84,0.00,,,0.24,,2013-02-27 06:02:00,
2013-02-27 00:11:00,30.0,26.0,29.91,NNW,340,4.0,8.0,84,0.00,,,0.24,,2013-02-27 06:11:00,
2013-02-27 00:21:00,30.0,26.0,29.92,NNW,331,3.0,8.0,85,0.00,,,0.24,,2013-02-27 06:21:00,
2013-02-27 00:32:00,30.0,26.0,29.92,NNW,327,5.0,9.0,85,0.00,,,0.24,,2013-02-27 06:32:00,
2013-02-27 00:41:00,30.0,26.0,29.92,NNW,327,5.0,9.0,85,0.00,,,0.24,,2013-02-27 06:41:00,
2013-02-27 00:52:00,30.0,26.0,29.92,NNW,332,5.0,9.0,86,0.00,,,0.24,,2013-02-27 06:52:00,
2013-02-27 01:01:00,30.0,26.0,29.92,NNW,347,5.0,9.0,86,0.00,,,0.24,,2013-02-27 07:01:00,
2013-02-27 01:12:00,30.0,26.0,29.92,NNW,347,5.0,9.0,86,0.00,,,0.24,,2013-02-27 07:12:00,
2013-02-27 01:21:00,30.0,26.0,29.92,NW,325,5.0,9.0,86,0.00,,,0.24,,2013-02-27 07:21:00,
2013-02-27 01:32:00,30.0,26.0,29.92,NNW,335,5.0,8.0,86,0.00,,,0.24,,2013-02-27 07:32:00,
2013-02-27 01:42:00,30.0,26.0,29.92,NNW,335,5.0,8.0,86,0.00,,,0.24,,2013-02-27 07:42:00,
2013-02-27 01:52:00,30.0,26.0,29.93,NNW,334,6.0,9.0,86,0.00,,,0.24,,2013-02-27 07:52:00,
2013-02-27 02:01:00,29.0,26.0,29.93,NNW,343,6.0,9.0,87,0.00,,,0.24,,2013-02-27 08:01:00,
2013-02-27 02:11:00,29.0,26.0,29.93,NNW,343,6.0,9.0,87,0.00,,,0.24,,2013-02-27 08:11:00,
2013-02-27 02:21:00,29.0,26.0,29.93,NNW,343,5.0,12.0,87,0.00,,,0.24,,2013-02-27 08:21:00,
2013-02-27 02:32:00,29.0,26.0,29.93,NNW,340,5.0,12.0,87,0.00,,,0.24,,2013-02-27 08:32:00,
2013-02-27 02:41:00,29.0,26.0,29.93,NNW,340,5.0,12.0,87,0.00,,,0.24,,2013-02-27 08:41:00,
2013-02-27 02:53:00,29.0,26.0,29.94,NNW,341,6.0,10.0,87,0.00,,,0.24,,2013-02-27 08:53:00,
2013-02-27 03:01:00,29.0,26.0,29.94,NW,309,6.0,12.0,87,0.00,,,0.24,,2013-02-27 09:01:00,
2013-02-27 03:12:00,29.0,26.0,29.94,NW,309,6.0,12.0,87,0.00,,,0.24,,2013-02-27 09:12:00,
2013-02-27 03:21:00,29.0,26.0,29.95,NNW,331,3.0,8.0,87,0.00,,,0.24,,2013-02-27 09:21:00,
2013-02-27 03:32:00,29.0,26.0,29.95,NNW,333,3.0,8.0,87,0.00,,,0.24,,2013-02-27 09:32:00,
2013-02-27 03:41:00,29.0,26.0,29.95,NNW,333,3.0,8.0,87,0.00,,,0.24,,2013-02-27 09:41:00,
2013-02-27 03:52:00,29.0,26.0,29.95,NW,309,7.0,12.0,87,0.00,,,0.24,,2013-02-27 09:52:00,
2013-02-27 04:01:00,29.0,26.0,29.95,NW,324,4.0,9.0,87,0.00,,,0.24,,2013-02-27 10:01:00,
2013-02-27 04:12:00,29.0,26.0,29.95,NW,324,4.0,9.0,87,0.00,,,0.24,,2013-02-27 10:12:00,
2013-02-27 04:22:00,29.0,26.0,29.95,WNW,297,6.0,9.0,88,0.00,,,0.24,,2013-02-27 10:22:00,
2013-02-27 04:32:00,29.0,26.0,29.95,NW,308,6.0,12.0,88,0.00,,,0.24,,2013-02-27 10:32:00,
2013-02-27 04:42:00,29.0,26.0,29.95,NW,308,6.0,12.0,88,0.00,,,0.24,,2013-02-27 10:42:00,
2013-02-27 04:53:00,29.0,26.0,29.95,WNW,303,3.0,9.0,89,0.00,,,0.24,,2013-02-27 10:53:00,
2013-02-27 05:02:00,28.0,25.0,29.95,NW,313,5.0,8.0,89,0.00,,,0.24,,2013-02-27 11:02:00,
2013-02-27 05:12:00,28.0,25.0,29.95,NW,313,5.0,8.0,89,0.00,,,0.24,,2013-02-27 11:12:00,
2013-02-27 05:22:00,28.0,25.0,29.96,NW,308,6.0,9.0,90,0.00,,,0.24,,2013-02-27 11:22:00,
2013-02-27 05:32:00,28.0,25.0,29.96,WNW,303,5.0,8.0,90,0.00,,,0.24,,2013-02-27 11:32:00,
2013-02-27 05:41:00,28.0,25.0,29.96,WNW,303,5.0,8.0,90,0.00,,,0.24,,2013-02-27 11:41:00,
2013-02-27 05:52:00,28.0,26.0,29.96,WNW,301,6.0,10.0,91,0.00,,,0.24,,2013-02-27 11:52:00,
2013-02-27 06:02:00,28.0,26.0,29.96,WNW,288,6.0,8.0,91,0.00,,,0.24,,2013-02-27 12:02:00,
2013-02-27 06:12:00,28.0,26.0,29.96,WNW,288,6.0,8.0,91,0.00,,,0.24,,2013-02-27 12:12:00,
2013-02-27 06:22:00,28.0,26.0,29.96,WNW,289,7.0,12.0,92,0.00,,,0.24,,2013-02-27 12:22:00,
2013-02-27 06:32:00,28.0,26.0,29.96,WNW,302,7.0,10.0,91,0.00,,,0.24,,2013-02-27 12:32:00,
2013-02-27 06:42:00,28.0,26.0,29.96,WNW,302,7.0,10.0,91,0.00,,,0.24,,2013-02-27 12:42:00,
2013-02-27 06:52:00,28.0,26.0,29.98,NW,323,7.0,15.0,91,0.00,,,0.24,,2013-02-27 12:52:00,
2013-02-27 07:02:00,27.0,24.0,29.98,WNW,296,9.0,15.0,90,0.00,,,0.24,,2013-02-27 13:02:00,
2013-02-27 07:11:00,27.0,24.0,29.98,WNW,296,9.0,15.0,90,0.00,,,0.24,,2013-02-27 13:11:00,
2013-02-27 07:22:00,27.0,24.0,29.99,NW,306,6.0,14.0,89,0.00,,,0.24,,2013-02-27 13:22:00,
2013-02-27 07:32:00,27.0,24.0,29.99,WNW,293,6.0,10.0,89,0.00,,,0.24,,2013-02-27 13:32:00,
2013-02-27 07:42:00,27.0,24.0,29.99,WNW,293,6.0,10.0,89,0.00,,,0.24,,2013-02-27 13:42:00,
2013-02-27 07:52:00,27.0,24.0,29.99,WNW,302,5.0,9.0,89,0.00,,,0.24,,2013-02-27 13:52:00,
2013-02-27 08:02:00,27.0,24.0,29.99,NW,305,7.0,10.0,89,0.00,,,0.24,,2013-02-27 14:02:00,
2013-02-27 08:12:00,27.0,24.0,29.99,NW,305,7.0,10.0,89,0.00,,,0.24,,2013-02-27 14:12:00,
2013-02-27 08:22:00,28.0,24.0,30.00,WNW,303,6.0,10.0,86,0.00,,,0.24,,2013-02-27 14:22:00,
2013-02-27 08:32:00,28.0,23.0,30.00,NW,311,6.0,13.0,82,0.00,,,0.24,,2013-02-27 14:32:00,
2013-02-27 08:42:00,28.0,23.0,30.00,NW,311,6.0,13.0,82,0.00,,,0.24,,2013-02-27 14:42:00,
2013-02-27 08:52:00,29.0,21.0,30.01,WNW,303,6.0,12.0,73,0.00,,,0.24,,2013-02-27 14:52:00,
2013-02-27 09:02:00,32.0,22.0,30.01,WNW,299,7.0,10.0,65,0.00,,,0.24,,2013-02-27 15:02:00,
2013-02-27 09:12:00,32.0,22.0,30.01,WNW,299,7.0,10.0,65,0.00,,,0.24,,2013-02-27 15:12:00,
2013-02-27 09:22:00,32.0,21.0,30.02,NW,304,6.0,13.0,63,0.00,,,0.24,,2013-02-27 15:22:00,
2013-02-27 09:32:00,33.0,21.0,30.02,WNW,301,7.0,13.0,61,0.00,,,0.24,,2013-02-27 15:32:00,
2013-02-27 09:42:00,33.0,21.0,30.02,WNW,301,7.0,13.0,61,0.00,,,0.24,,2013-02-27 15:42:00,
2013-02-27 09:52:00,36.0,21.0,30.02,NW,307,11.0,15.0,53,0.00,,,0.24,,2013-02-27 15:52:00,
2013-02-27 10:02:00,38.0,22.0,30.02,WNW,297,6.0,15.0,52,0.00,,,0.24,,2013-02-27 16:02:00,
2013-02-27 10:22:00,38.0,22.0,30.03,NNW,332,8.0,13.0,51,0.00,,,0.24,,2013-02-27 16:22:00,
2013-02-27 10:32:00,33.0,17.0,30.03,NNW,334,12.0,17.0,52,0.00,,,0.24,,2013-02-27 16:32:00,
2013-02-27 10:42:00,33.0,17.0,30.03,NNW,334,12.0,17.0,52,0.00,,,0.24,,2013-02-27 16:42:00,
2013-02-27 10:52:00,30.0,19.0,30.05,NNW,346,12.0,20.0,62,0.00,,,0.24,,2013-02-27 16:52:00,
2013-02-27 11:02:00,32.0,19.0,30.05,NNW,339,10.0,18.0,58,0.00,,,0.24,,2013-02-27 17:02:00,
2013-02-27 11:11:00,32.0,19.0,30.05,NNW,339,10.0,18.0,58,0.00,,,0.24,,2013-02-27 17:11:00,
2013-02-27 11:21:00,34.0,19.0,30.05,NW,322,10.0,17.0,54,0.00,,,0.24,,2013-02-27 17:21:00,
2013-02-27 11:32:00,34.0,19.0,30.05,NNW,327,9.0,18.0,54,0.00,,,0.24,,2013-02-27 17:32:00,
2013-02-27 11:42:00,34.0,19.0,30.05,NNW,327,9.0,18.0,54,0.00,,,0.24,,2013-02-27 17:42:00,
2013-02-27 11:52:00,34.0,20.0,30.06,NW,326,9.0,17.0,56,0.00,,,0.24,,2013-02-27 17:52:00,
2013-02-27 12:01:00,34.0,20.0,30.06,North,351,9.0,20.0,55,0.00,,,0.24,,2013-02-27 18:01:00,
2013-02-27 12:11:00,34.0,20.0,30.06,North,351,9.0,20.0,55,0.00,,,0.24,,2013-02-27 18:11:00,
2013-02-27 12:22:00,36.0,21.0,30.06,NW,309,9.0,14.0,54,0.00,,,0.24,,2013-02-27 18:22:00,
2013-02-27 12:32:00,37.0,21.0,30.06,NW,319,9.0,15.0,53,0.00,,,0.24,,2013-02-27 18:32:00,
2013-02-27 12:52:00,37.0,21.0,30.07,NNW,334,8.0,17.0,52,0.00,,,0.20,,2013-02-27 18:52:00,
2013-02-27 13:01:00,37.0,21.0,30.07,NW,310,9.0,17.0,52,0.00,,,0.20,,2013-02-27 19:01:00,
2013-02-27 13:12:00,37.0,21.0,30.07,NW,310,9.0,17.0,52,0.00,,,0.20,,2013-02-27 19:12:00,
2013-02-27 13:21:00,38.0,22.0,30.07,NNW,334,8.0,17.0,52,0.00,,,0.20,,2013-02-27 19:21:00,
2013-02-27 13:32:00,38.0,22.0,30.07,NW,325,9.0,17.0,52,0.00,,,0.16,,2013-02-27 19:32:00,
2013-02-27 13:42:00,38.0,22.0,30.07,NW,325,9.0,17.0,52,0.00,,,0.16,,2013-02-27 19:42:00,
2013-02-27 13:52:00,38.0,22.0,30.08,NNW,331,10.0,15.0,51,0.00,,,0.16,,2013-02-27 19:52:00,
2013-02-27 14:01:00,40.0,23.0,30.08,NNW,340,8.0,13.0,51,0.00,,,0.16,,2013-02-27 20:01:00,
2013-02-27 14:21:00,40.0,23.0,30.08,NW,317,7.0,17.0,51,0.00,,,0.12,,2013-02-27 20:21:00,
2013-02-27 14:32:00,40.0,23.0,30.08,WNW,299,7.0,17.0,51,0.00,,,0.08,,2013-02-27 20:32:00,
2013-02-27 14:42:00,40.0,23.0,30.08,WNW,299,7.0,17.0,51,0.00,,,0.08,,2013-02-27 20:42:00,
2013-02-27 14:52:00,41.0,24.0,30.08,NW,319,9.0,15.0,50,0.00,,,0.04,,2013-02-27 20:52:00,
2013-02-27 15:02:00,41.0,24.0,30.08,WNW,300,12.0,16.0,50,0.00,,,0.04,,2013-02-27 21:02:00,
2013-02-27 15:11:00,41.0,24.0,30.08,WNW,300,12.0,16.0,50,0.00,,,0.04,,2013-02-27 21:11:00,
2013-02-27 15:22:00,41.0,24.0,30.09,NW,324,6.0,20.0,51,0.00,,,0.04,,2013-02-27 21:22:00,
2013-02-27 15:32:00,41.0,24.0,30.09,NW,325,10.0,15.0,50,0.00,,,0.04,,2013-02-27 21:32:00,
2013-02-27 15:42:00,41.0,24.0,30.09,NW,325,10.0,15.0,50,0.00,,,0.04,,2013-02-27 21:42:00,
2013-02-27 15:52:00,42.0,25.0,30.09,WNW,301,7.0,17.0,50,0.00,,,0.04,,2013-02-27 21:52:00,
2013-02-27 16:01:00,41.0,24.0,30.09,NW,316,10.0,20.0,50,0.00,,,0.04,,2013-02-27 22:01:00,
2013-02-27 16:11:00,41.0,24.0,30.09,NW,316,10.0,20.0,50,0.00,,,0.04,,2013-02-27 22:11:00,
2013-02-27 16:21:00,40.0,23.0,30.09,WNW,289,11.0,16.0,50,0.00,,,0.04,,2013-02-27 22:21:00,
2013-02-27 16:31:00,40.0,23.0,30.09,NW,321,9.0,15.0,51,0.00,,,0.04,,2013-02-27 22:31:00,
2013-02-27 16:42:00,40.0,23.0,30.09,NW,321,9.0,15.0,51,0.00,,,0.04,,2013-02-27 22:42:00,
2013-02-27 16:52:00,40.0,23.0,30.09,NW,310,10.0,15.0,51,0.00,,,0.00,,2013-02-27 22:52:00,
2013-02-27 17:01:00,39.0,22.0,30.09,NW,309,9.0,18.0,51,0.00,,,0.00,,2013-02-27 23:01:00,
2013-02-27 17:11:00,39.0,22.0,30.09,NW,309,9.0,18.0,51,0.00,,,0.00,,2013-02-27 23:11:00,
2013-02-27 17:21:00,38.0,22.0,30.10,WNW,299,7.0,14.0,52,0.00,,,0.00,,2013-02-27 23:21:00,
2013-02-27 17:32:00,37.0,21.0,30.10,WNW,297,10.0,14.0,52,0.00,,,0.00,,2013-02-27 23:32:00,
2013-02-27 17:42:00,37.0,21.0,30.10,WNW,297,10.0,14.0,52,0.00,,,0.00,,2013-02-27 23:42:00,
2013-02-27 17:53:00,36.0,21.0,30.11,WNW,295,9.0,15.0,55,0.00,,,0.00,,2013-02-27 23:53:00,
2013-02-27 18:01:00,36.0,22.0,30.11,WNW,300,8.0,16.0,56,0.00,,,0.00,,2013-02-28 00:01:00,
2013-02-27 18:11:00,36.0,22.0,30.11,WNW,300,8.0,16.0,56,0.00,,,0.00,,2013-02-28 00:11:00,
2013-02-27 18:21:00,35.0,23.0,30.12,WNW,291,9.0,15.0,61,0.00,,,0.00,,2013-02-28 00:21:00,
2013-02-27 18:32:00,35.0,23.0,30.12,WNW,295,9.0,14.0,62,0.00,,,0.00,,2013-02-28 00:32:00,
2013-02-27 18:42:00,35.0,23.0,30.12,WNW,295,9.0,14.0,62,0.00,,,0.00,,2013-02-28 00:42:00,
2013-02-27 18:52:00,34.0,23.0,30.13,WNW,300,10.0,14.0,63,0.00,,,0.00,,2013-02-28 00:52:00,
2013-02-27 19:01:00,34.0,23.0,30.13,WNW,295,7.0,15.0,63,0.00,,,0.00,,2013-02-28 01:01:00,
2013-02-27 19:11:00,34.0,23.0,30.13,WNW,295,7.0,15.0,63,0.00,,,0.00,,2013-02-28 01:11:00,
2013-02-27 19:21:00,34.0,23.0,30.13,NW,321,7.0,13.0,63,0.00,,,0.00,,2013-02-28 01:21:00,
2013-02-27 19:32:00,34.0,23.0,30.13,WNW,300,8.0,13.0,64,0.00,,,0.00,,2013-02-28 01:32:00,
2013-02-27 19:41:00,34.0,23.0,30.13,WNW,300,8.0,13.0,64,0.00,,,0.00,,2013-02-28 01:41:00,
2013-02-27 19:52:00,33.0,22.0,30.13,NW,316,9.0,15.0,64,0.00,,,0.00,,2013-02-28 01:52:00,
2013-02-27 20:01:00,33.0,22.0,30.13,NW,320,5.0,16.0,64,0.00,,,0.00,,2013-02-28 02:01:00,
2013-02-27 20:11:00,33.0,22.0,30.13,NW,320,5.0,16.0,64,0.00,,,0.00,,2013-02-28 02:11:00,
2013-02-27 20:22:00,33.0,22.0,30.14,West,273,6.0,14.0,64,0.00,,,0.00,,2013-02-28 02:22:00,
2013-02-27 20:31:00,33.0,23.0,30.14,WNW,295,7.0,10.0,65,0.00,,,0.00,,2013-02-28 02:31:00,
2013-02-27 20:41:00,33.0,23.0,30.14,WNW,295,7.0,10.0,65,0.00,,,0.00,,2013-02-28 02:41:00,
2013-02-27 20:52:00,33.0,23.0,30.14,WNW,295,7.0,10.0,65,0.00,,,0.00,,2013-02-28 02:52:00,
2013-02-27 21:01:00,32.0,23.0,30.15,NW,319,7.0,10.0,68,0.00,,,0.00,,2013-02-28 03:01:00,
2013-02-27 21:11:00,32.0,23.0,30.15,NW,319,7.0,10.0,68,0.00,,,0.00,,2013-02-28 03:11:00,
2013-02-27 21:21:00,31.0,22.0,30.15,NW,308,6.0,12.0,70,0.00,,,0.00,,2013-02-28 03:21:00,
2013-02-27 21:31:00,31.0,23.0,30.15,WNW,303,6.0,9.0,71,0.00,,,0.00,,2013-02-28 03:31:00,
2013-02-27 21:42:00,31.0,23.0,30.15,WNW,303,6.0,9.0,71,0.00,,,0.00,,2013-02-28 03:42:00,
2013-02-27 21:52:00,31.0,23.0,30.15,NW,313,5.0,10.0,72,0.00,,,0.00,,2013-02-28 03:52:00,
2013-02-27 22:01:00,31.0,23.0,30.15,NW,315,5.0,6.0,72,0.00,,,0.00,,2013-02-28 04:01:00,
2013-02-27 22:11:00,31.0,23.0,30.15,NW,315,5.0,6.0,72,0.00,,,0.00,,2013-02-28 04:11:00,
2013-02-27 22:21:00,31.0,23.0,30.16,NW,308,5.0,8.0,71,0.00,,,0.00,,2013-02-28 04:21:00,
2013-02-27 22:32:00,31.0,23.0,30.16,NW,306,6.0,9.0,72,0.00,,,0.00,,2013-02-28 04:32:00,
2013-02-27 22:42:00,31.0,23.0,30.16,NW,306,6.0,9.0,72,0.00,,,0.00,,2013-02-28 04:42:00,
2013-02-27 22:52:00,30.0,22.0,30.16,WNW,301,4.0,8.0,72,0.00,,,0.00,,2013-02-28 04:52:00,
2013-02-27 23:01:00,30.0,22.0,30.16,WNW,299,6.0,8.0,72,0.00,,,0.00,,2013-02-28 05:01:00,
2013-02-27 23:11:00,30.0,22.0,30.16,WNW,299,6.0,8.0,72,0.00,,,0.00,,2013-02-28 05:11:00,
2013-02-27 23:22:00,28.0,20.0,30.16,West,275,3.0,3.0,71,0.00,,,0.00,,2013-02-28 05:22:00,
2013-02-27 23:31:00,27.0,20.0,30.16,WNW,283,3.0,6.0,73,0.00,,,0.00,,2013-02-28 05:31:00,
2013-02-27 23:42:00,27.0,20.0,30.16,WNW,283,3.0,6.0,73,0.00,,,0.00,,2013-02-28 05:42:00,
2013-02-27 23:52:00,27.0,20.0,30.16,WNW,300,6.0,9.0,76,0.00,,,0.00,,2013-02-28 05:52:00,